sensor_id;sensor_type;location;lat;lon;timestamp;pressure;altitude;pressure_sealevel;temperature;humidity
76201;BME280;64981;52.930;9.266;2023-03-20T00:00:34;101440.38;;;9.36;78.09
76201;BME280;64981;52.930;9.266;2023-03-20T00:03:00;101437.19;;;9.42;78.07
76201;BME280;64981;52.930;9.266;2023-03-20T00:05:28;101414.28;;;9.23;78.01
76201;BME280;64981;52.930;9.266;2023-03-20T00:07:55;101363.59;;;8.91;78.05
76201;BME280;64981;52.930;9.266;2023-03-20T00:10:33;101335.88;;;8.77;77.97
76201;BME280;64981;52.930;9.266;2023-03-20T00:13:00;101336.16;;;8.84;77.81
76201;BME280;64981;52.930;9.266;2023-03-20T00:15:35;101402.91;;;9.22;78.06
76201;BME280;64981;52.930;9.266;2023-03-20T00:18:03;101430.69;;;9.46;77.71
76201;BME280;64981;52.930;9.266;2023-03-20T00:20:35;101436.38;;;9.51;77.60
76201;BME280;64981;52.930;9.266;2023-03-20T00:23:01;101347.53;;;9.03;77.48
76201;BME280;64981;52.930;9.266;2023-03-20T00:25:29;101437.31;;;9.50;77.67
76201;BME280;64981;52.930;9.266;2023-03-20T00:27:56;101430.41;;;9.39;77.87
76201;BME280;64981;52.930;9.266;2023-03-20T00:30:25;101347.66;;;8.83;78.35
76201;BME280;64981;52.930;9.266;2023-03-20T00:32:54;101424.00;;;9.32;78.39
76201;BME280;64981;52.930;9.266;2023-03-20T00:35:28;101426.38;;;9.35;78.51
76201;BME280;64981;52.930;9.266;2023-03-20T00:37:56;101377.75;;;9.09;78.14
76201;BME280;64981;52.930;9.266;2023-03-20T00:40:29;101420.25;;;9.44;77.87
76201;BME280;64981;52.930;9.266;2023-03-20T00:43:00;101425.25;;;9.38;78.34
76201;BME280;64981;52.930;9.266;2023-03-20T00:45:31;101326.97;;;8.78;78.16
76201;BME280;64981;52.930;9.266;2023-03-20T00:47:58;101410.16;;;9.40;77.72
76201;BME280;64981;52.930;9.266;2023-03-20T00:50:27;101419.84;;;9.49;77.94
76201;BME280;64981;52.930;9.266;2023-03-20T00:52:56;101405.56;;;9.42;77.50
76201;BME280;64981;52.930;9.266;2023-03-20T00:55:26;101417.78;;;9.52;77.67
76201;BME280;64981;52.930;9.266;2023-03-20T00:57:55;101408.59;;;9.37;78.18
76201;BME280;64981;52.930;9.266;2023-03-20T01:00:35;101421.09;;;9.45;77.89
76201;BME280;64981;52.930;9.266;2023-03-20T01:03:11;101435.25;;;9.63;77.09
76201;BME280;64981;52.930;9.266;2023-03-20T01:05:38;101426.22;;;9.56;77.29
76201;BME280;64981;52.930;9.266;2023-03-20T01:08:12;101429.28;;;9.42;77.62
76201;BME280;64981;52.930;9.266;2023-03-20T01:10:40;101436.09;;;9.44;77.53
76201;BME280;64981;52.930;9.266;2023-03-20T01:13:16;101433.44;;;9.44;77.64
76201;BME280;64981;52.930;9.266;2023-03-20T01:15:43;101433.44;;;9.44;77.73
76201;BME280;64981;52.930;9.266;2023-03-20T01:18:13;101421.78;;;9.37;77.43
76201;BME280;64981;52.930;9.266;2023-03-20T01:20:39;101424.16;;;9.31;77.92
76201;BME280;64981;52.930;9.266;2023-03-20T01:23:05;101428.72;;;9.29;78.17
76201;BME280;64981;52.930;9.266;2023-03-20T01:25:30;101416.09;;;9.22;78.09
76201;BME280;64981;52.930;9.266;2023-03-20T01:27:56;101408.84;;;9.24;77.92
76201;BME280;64981;52.930;9.266;2023-03-20T01:30:25;101417.75;;;9.23;77.99
76201;BME280;64981;52.930;9.266;2023-03-20T01:32:52;101434.25;;;9.25;78.39
76201;BME280;64981;52.930;9.266;2023-03-20T01:35:21;101432.06;;;9.31;78.14
76201;BME280;64981;52.930;9.266;2023-03-20T01:37:48;101431.63;;;9.25;78.40
76201;BME280;64981;52.930;9.266;2023-03-20T01:40:33;101434.94;;;9.27;78.29
76201;BME280;64981;52.930;9.266;2023-03-20T01:43:00;101438.44;;;9.38;78.18
76201;BME280;64981;52.930;9.266;2023-03-20T01:45:33;101423.59;;;9.27;78.10
76201;BME280;64981;52.930;9.266;2023-03-20T01:48:11;101447.44;;;9.25;78.23
76201;BME280;64981;52.930;9.266;2023-03-20T01:50:39;101447.03;;;9.30;78.36
76201;BME280;64981;52.930;9.266;2023-03-20T01:53:17;101450.09;;;9.35;78.09
76201;BME280;64981;52.930;9.266;2023-03-20T01:55:46;101445.38;;;9.29;78.01
76201;BME280;64981;52.930;9.266;2023-03-20T01:58:20;101447.72;;;9.32;78.17
76201;BME280;64981;52.930;9.266;2023-03-20T02:00:46;101439.97;;;9.31;77.56
76201;BME280;64981;52.930;9.266;2023-03-20T02:03:14;101445.50;;;9.37;77.33
76201;BME280;64981;52.930;9.266;2023-03-20T02:05:42;101453.56;;;9.36;77.48
76201;BME280;64981;52.930;9.266;2023-03-20T02:08:27;101432.88;;;9.41;76.84
76201;BME280;64981;52.930;9.266;2023-03-20T02:10:57;101444.44;;;9.49;76.67
76201;BME280;64981;52.930;9.266;2023-03-20T02:13:26;101443.69;;;9.38;76.40
76201;BME280;64981;52.930;9.266;2023-03-20T02:16:12;101453.84;;;9.42;76.00
76201;BME280;64981;52.930;9.266;2023-03-20T02:18:42;101445.50;;;9.37;75.39
76201;BME280;64981;52.930;9.266;2023-03-20T02:24:33;101450.75;;;9.27;75.04
76201;BME280;64981;52.930;9.266;2023-03-20T02:27:31;101442.06;;;9.37;74.52
76201;BME280;64981;52.930;9.266;2023-03-20T02:42:07;101448.16;;;9.56;72.63
76201;BME280;64981;52.930;9.266;2023-03-20T02:44:58;101439.16;;;9.49;72.58
76201;BME280;64981;52.930;9.266;2023-03-20T02:47:40;101448.59;;;9.61;71.98
76201;BME280;64981;52.930;9.266;2023-03-20T02:50:26;101450.22;;;9.53;71.88
76201;BME280;64981;52.930;9.266;2023-03-20T02:59:14;101444.97;;;9.53;71.42
76201;BME280;64981;52.930;9.266;2023-03-20T03:01:52;101427.75;;;9.39;70.96
76201;BME280;64981;52.930;9.266;2023-03-20T03:04:43;101427.88;;;9.28;70.40
76201;BME280;64981;52.930;9.266;2023-03-20T03:07:14;101433.16;;;9.28;70.42
76201;BME280;64981;52.930;9.266;2023-03-20T03:09:52;101428.72;;;9.29;70.07
76201;BME280;64981;52.930;9.266;2023-03-20T03:12:24;101427.59;;;9.31;69.62
76201;BME280;64981;52.930;9.266;2023-03-20T03:14:59;101431.22;;;9.30;69.71
76201;BME280;64981;52.930;9.266;2023-03-20T03:17:31;101417.06;;;9.31;69.49
76201;BME280;64981;52.930;9.266;2023-03-20T03:20:03;101417.47;;;9.27;69.44
76201;BME280;64981;52.930;9.266;2023-03-20T03:22:31;101414.28;;;9.33;69.38
76201;BME280;64981;52.930;9.266;2023-03-20T03:24:59;101416.94;;;9.33;69.28
76201;BME280;64981;52.930;9.266;2023-03-20T03:27:37;101415.53;;;9.29;69.56
76201;BME280;64981;52.930;9.266;2023-03-20T03:30:24;101412.50;;;9.23;69.41
76201;BME280;64981;52.930;9.266;2023-03-20T03:33:23;101414.28;;;9.13;70.01
76201;BME280;64981;52.930;9.266;2023-03-20T03:35:57;101405.94;;;9.08;70.27
76201;BME280;64981;52.930;9.266;2023-03-20T03:38:39;101402.03;;;9.03;70.28
76201;BME280;64981;52.930;9.266;2023-03-20T03:41:34;101402.31;;;9.09;69.98
76201;BME280;64981;52.930;9.266;2023-03-20T03:44:27;101408.13;;;8.94;70.39
76201;BME280;64981;52.930;9.266;2023-03-20T03:47:05;101394.81;;;8.86;70.59
76201;BME280;64981;52.930;9.266;2023-03-20T03:49:36;101396.56;;;8.76;71.00
76201;BME280;64981;52.930;9.266;2023-03-20T03:52:23;101395.47;;;8.78;71.14
76201;BME280;64981;52.930;9.266;2023-03-20T03:55:07;101391.31;;;8.76;71.02
76201;BME280;64981;52.930;9.266;2023-03-20T03:57:56;101389.78;;;8.73;71.34
76201;BME280;64981;52.930;9.266;2023-03-20T04:00:25;101384.97;;;8.57;71.95
76201;BME280;64981;52.930;9.266;2023-03-20T04:02:55;101379.84;;;8.56;72.07
76201;BME280;64981;52.930;9.266;2023-03-20T04:05:25;101389.28;;;8.58;71.83
76201;BME280;64981;52.930;9.266;2023-03-20T04:07:56;101382.19;;;8.59;72.09
76201;BME280;64981;52.930;9.266;2023-03-20T04:10:22;101376.81;;;8.60;72.17
76201;BME280;64981;52.930;9.266;2023-03-20T04:12:48;101387.78;;;8.65;72.17
76201;BME280;64981;52.930;9.266;2023-03-20T04:15:16;101389.09;;;8.71;71.79
76201;BME280;64981;52.930;9.266;2023-03-20T04:17:42;101383.38;;;8.66;72.13
76201;BME280;64981;52.930;9.266;2023-03-20T04:20:09;101380.97;;;8.63;72.33
76201;BME280;64981;52.930;9.266;2023-03-20T04:22:35;101375.13;;;8.59;72.32
76201;BME280;64981;52.930;9.266;2023-03-20T04:25:02;101392.22;;;8.65;72.49
76201;BME280;64981;52.930;9.266;2023-03-20T04:27:28;101393.63;;;8.69;72.16
76201;BME280;64981;52.930;9.266;2023-03-20T04:29:54;101389.78;;;8.73;71.70
76201;BME280;64981;52.930;9.266;2023-03-20T04:32:19;101390.63;;;8.74;71.80
76201;BME280;64981;52.930;9.266;2023-03-20T04:34:45;101396.84;;;8.73;71.44
76201;BME280;64981;52.930;9.266;2023-03-20T04:37:11;101400.59;;;8.80;71.20
76201;BME280;64981;52.930;9.266;2023-03-20T04:39:36;101404.88;;;8.81;71.20
76201;BME280;64981;52.930;9.266;2023-03-20T04:42:04;101400.88;;;8.77;71.34
76201;BME280;64981;52.930;9.266;2023-03-20T04:44:30;101413.34;;;8.84;71.36
76201;BME280;64981;52.930;9.266;2023-03-20T04:46:56;101412.41;;;8.85;71.23
76201;BME280;64981;52.930;9.266;2023-03-20T04:49:21;101414.72;;;8.79;71.55
76201;BME280;64981;52.930;9.266;2023-03-20T04:51:47;101407.00;;;8.87;71.28
76201;BME280;64981;52.930;9.266;2023-03-20T04:54:12;101405.63;;;8.92;71.13
76201;BME280;64981;52.930;9.266;2023-03-20T04:56:38;101397.00;;;8.90;70.94
76201;BME280;64981;52.930;9.266;2023-03-20T04:59:03;101397.56;;;8.94;70.82
76201;BME280;64981;52.930;9.266;2023-03-20T05:01:29;101392.47;;;8.92;70.84
76201;BME280;64981;52.930;9.266;2023-03-20T05:03:54;101396.34;;;8.98;70.97
76201;BME280;64981;52.930;9.266;2023-03-20T05:06:27;101394.41;;;9.00;70.91
76201;BME280;64981;52.930;9.266;2023-03-20T05:08:53;101399.66;;;9.00;70.91
76201;BME280;64981;52.930;9.266;2023-03-20T05:11:18;101392.47;;;9.02;71.07
76201;BME280;64981;52.930;9.266;2023-03-20T05:13:44;101380.41;;;8.99;71.10
76201;BME280;64981;52.930;9.266;2023-03-20T05:16:10;101389.69;;;9.03;70.96
76201;BME280;64981;52.930;9.266;2023-03-20T05:18:36;101389.41;;;9.06;70.77
76201;BME280;64981;52.930;9.266;2023-03-20T05:21:01;101391.09;;;9.07;70.74
76201;BME280;64981;52.930;9.266;2023-03-20T05:23:28;101378.19;;;9.04;70.66
76201;BME280;64981;52.930;9.266;2023-03-20T05:25:54;101389.88;;;9.11;70.87
76201;BME280;64981;52.930;9.266;2023-03-20T05:28:20;101391.22;;;9.15;70.71
76201;BME280;64981;52.930;9.266;2023-03-20T05:30:46;101397.47;;;9.05;71.12
76201;BME280;64981;52.930;9.266;2023-03-20T05:33:11;101401.22;;;9.12;70.84
76201;BME280;64981;52.930;9.266;2023-03-20T05:35:37;101401.38;;;9.10;71.00
76201;BME280;64981;52.930;9.266;2023-03-20T05:38:03;101398.72;;;9.10;70.67
76201;BME280;64981;52.930;9.266;2023-03-20T05:40:28;101407.31;;;9.12;71.10
76201;BME280;64981;52.930;9.266;2023-03-20T05:42:54;101408.44;;;9.10;71.33
76201;BME280;64981;52.930;9.266;2023-03-20T05:45:20;101406.09;;;9.16;71.09
76201;BME280;64981;52.930;9.266;2023-03-20T05:47:45;101415.78;;;9.16;71.20
76201;BME280;64981;52.930;9.266;2023-03-20T05:50:11;101402.31;;;9.09;71.63
76201;BME280;64981;52.930;9.266;2023-03-20T05:52:37;101417.59;;;9.15;71.53
76201;BME280;64981;52.930;9.266;2023-03-20T05:55:03;101411.63;;;9.13;71.46
76201;BME280;64981;52.930;9.266;2023-03-20T05:57:29;101417.28;;;9.09;72.03
76201;BME280;64981;52.930;9.266;2023-03-20T05:59:54;101420.09;;;9.07;72.37
76201;BME280;64981;52.930;9.266;2023-03-20T06:02:20;101424.81;;;9.13;72.44
76201;BME280;64981;52.930;9.266;2023-03-20T06:04:46;101430.19;;;9.12;72.48
76201;BME280;64981;52.930;9.266;2023-03-20T06:07:11;101430.75;;;9.15;72.54
76201;BME280;64981;52.930;9.266;2023-03-20T06:09:37;101437.44;;;9.19;72.51
76201;BME280;64981;52.930;9.266;2023-03-20T06:12:02;101429.50;;;9.10;72.73
76201;BME280;64981;52.930;9.266;2023-03-20T06:14:28;101428.41;;;9.22;72.55
76201;BME280;64981;52.930;9.266;2023-03-20T06:16:54;101433.81;;;9.11;73.11
76201;BME280;64981;52.930;9.266;2023-03-20T06:19:21;101437.44;;;9.19;72.83
76201;BME280;64981;52.930;9.266;2023-03-20T06:21:49;101441.44;;;9.04;73.74
76201;BME280;64981;52.930;9.266;2023-03-20T06:24:15;101437.88;;;9.15;73.18
76201;BME280;64981;52.930;9.266;2023-03-20T06:26:42;101437.03;;;9.14;73.36
76201;BME280;64981;52.930;9.266;2023-03-20T06:29:07;101433.66;;;9.03;73.85
76201;BME280;64981;52.930;9.266;2023-03-20T06:31:33;101434.41;;;9.14;73.58
76201;BME280;64981;52.930;9.266;2023-03-20T06:33:58;101443.38;;;9.12;74.09
76201;BME280;64981;52.930;9.266;2023-03-20T06:36:24;101440.88;;;9.10;74.08
76201;BME280;64981;52.930;9.266;2023-03-20T06:38:50;101439.09;;;9.11;74.14
76201;BME280;64981;52.930;9.266;2023-03-20T06:41:15;101440.63;;;9.13;74.35
76201;BME280;64981;52.930;9.266;2023-03-20T06:43:41;101443.25;;;9.13;74.46
76201;BME280;64981;52.930;9.266;2023-03-20T06:46:08;101442.03;;;9.17;74.64
76201;BME280;64981;52.930;9.266;2023-03-20T06:48:33;101439.09;;;9.11;75.03
76201;BME280;64981;52.930;9.266;2023-03-20T06:50:59;101439.50;;;9.16;75.13
76201;BME280;64981;52.930;9.266;2023-03-20T06:53:25;101444.53;;;9.29;74.61
76201;BME280;64981;52.930;9.266;2023-03-20T06:55:51;101435.22;;;9.24;74.79
76201;BME280;64981;52.930;9.266;2023-03-20T06:58:17;101434.41;;;9.24;75.11
76201;BME280;64981;52.930;9.266;2023-03-20T07:00:43;101435.22;;;9.34;74.63
76201;BME280;64981;52.930;9.266;2023-03-20T07:03:09;101446.63;;;9.35;74.58
76201;BME280;64981;52.930;9.266;2023-03-20T07:05:36;101450.75;;;9.27;74.87
76201;BME280;64981;52.930;9.266;2023-03-20T07:08:03;101448.28;;;9.36;74.85
76201;BME280;64981;52.930;9.266;2023-03-20T07:10:29;101448.97;;;9.38;75.06
76201;BME280;64981;52.930;9.266;2023-03-20T07:12:54;101456.63;;;9.41;74.65
76201;BME280;64981;52.930;9.266;2023-03-20T07:15:21;101456.78;;;9.49;74.39
76201;BME280;64981;52.930;9.266;2023-03-20T07:17:47;101452.88;;;9.34;74.99
76201;BME280;64981;52.930;9.266;2023-03-20T07:20:13;101453.13;;;9.40;74.94
76201;BME280;64981;52.930;9.266;2023-03-20T07:22:40;101463.41;;;9.53;74.50
76201;BME280;64981;52.930;9.266;2023-03-20T07:25:07;101468.13;;;9.59;74.22
76201;BME280;64981;52.930;9.266;2023-03-20T07:27:34;101460.50;;;9.65;74.36
76201;BME280;64981;52.930;9.266;2023-03-20T07:30:01;101459.53;;;9.57;74.56
76201;BME280;64981;52.930;9.266;2023-03-20T07:32:26;101462.47;;;9.63;74.32
76201;BME280;64981;52.930;9.266;2023-03-20T07:34:52;101475.94;;;9.70;73.96
76201;BME280;64981;52.930;9.266;2023-03-20T07:37:18;101475.09;;;9.69;73.62
76201;BME280;64981;52.930;9.266;2023-03-20T07:39:44;101466.63;;;9.66;73.39
76201;BME280;64981;52.930;9.266;2023-03-20T07:42:09;101470.38;;;9.73;73.47
76201;BME280;64981;52.930;9.266;2023-03-20T07:44:35;101476.06;;;9.78;72.95
76201;BME280;64981;52.930;9.266;2023-03-20T07:47:01;101478.16;;;9.65;73.22
76201;BME280;64981;52.930;9.266;2023-03-20T07:49:26;101483.41;;;9.74;72.76
76201;BME280;64981;52.930;9.266;2023-03-20T07:51:52;101479.53;;;9.69;73.21
76201;BME280;64981;52.930;9.266;2023-03-20T07:54:21;101476.78;;;9.80;72.46
76201;BME280;64981;52.930;9.266;2023-03-20T07:56:47;101480.53;;;9.77;72.68
76201;BME280;64981;52.930;9.266;2023-03-20T07:59:12;101487.34;;;9.80;72.00
76201;BME280;64981;52.930;9.266;2023-03-20T08:01:38;101486.34;;;9.81;69.98
76201;BME280;64981;52.930;9.266;2023-03-20T08:04:04;101488.97;;;9.91;69.61
76201;BME280;64981;52.930;9.266;2023-03-20T08:06:30;101485.53;;;9.90;68.61
76201;BME280;64981;52.930;9.266;2023-03-20T08:08:56;101491.09;;;9.68;68.13
76201;BME280;64981;52.930;9.266;2023-03-20T08:11:21;101489.69;;;9.73;67.84
76201;BME280;64981;52.930;9.266;2023-03-20T08:13:47;101496.22;;;9.79;66.90
76201;BME280;64981;52.930;9.266;2023-03-20T08:16:12;101493.00;;;9.75;67.28
76201;BME280;64981;52.930;9.266;2023-03-20T08:18:38;101496.38;;;9.77;67.17
76201;BME280;64981;52.930;9.266;2023-03-20T08:21:04;101499.81;;;9.78;67.39
76201;BME280;64981;52.930;9.266;2023-03-20T08:23:29;101495.63;;;9.66;67.39
76201;BME280;64981;52.930;9.266;2023-03-20T08:25:55;101505.53;;;9.83;66.86
76201;BME280;64981;52.930;9.266;2023-03-20T08:28:21;101501.75;;;9.76;66.92
76201;BME280;64981;52.930;9.266;2023-03-20T08:30:47;101497.59;;;9.73;66.19
76201;BME280;64981;52.930;9.266;2023-03-20T08:33:15;101498.44;;;9.74;66.37
76201;BME280;64981;52.930;9.266;2023-03-20T08:35:41;101508.44;;;9.80;66.77
76201;BME280;64981;52.930;9.266;2023-03-20T08:38:11;101507.88;;;9.76;66.64
76201;BME280;64981;52.930;9.266;2023-03-20T08:40:40;101501.91;;;9.84;66.31
76201;BME280;64981;52.930;9.266;2023-03-20T08:43:06;101512.88;;;9.89;65.97
76201;BME280;64981;52.930;9.266;2023-03-20T08:45:31;101504.97;;;9.89;65.53
76201;BME280;64981;52.930;9.266;2023-03-20T08:47:57;101511.22;;;9.98;65.45
76201;BME280;64981;52.930;9.266;2023-03-20T08:50:23;101502.31;;;9.89;65.51
76201;BME280;64981;52.930;9.266;2023-03-20T08:52:48;101508.72;;;9.87;65.88
76201;BME280;64981;52.930;9.266;2023-03-20T08:55:14;101509.13;;;9.82;65.61
76201;BME280;64981;52.930;9.266;2023-03-20T08:57:41;101512.88;;;9.70;66.12
76201;BME280;64981;52.930;9.266;2023-03-20T09:00:09;101515.09;;;9.94;65.53
76201;BME280;64981;52.930;9.266;2023-03-20T09:02:37;101504.97;;;9.89;65.30
76201;BME280;64981;52.930;9.266;2023-03-20T09:05:03;101508.44;;;9.99;65.06
76201;BME280;64981;52.930;9.266;2023-03-20T09:07:28;101517.44;;;10.06;65.47
76201;BME280;64981;52.930;9.266;2023-03-20T09:09:54;101493.84;;;10.14;65.02
76201;BME280;64981;52.930;9.266;2023-03-20T09:12:20;101500.25;;;10.21;64.86
76201;BME280;64981;52.930;9.266;2023-03-20T09:14:45;101504.25;;;10.25;64.56
76201;BME280;64981;52.930;9.266;2023-03-20T09:17:11;101494.41;;;10.27;64.47
76201;BME280;64981;52.930;9.266;2023-03-20T09:19:36;101496.63;;;10.22;64.17
76201;BME280;64981;52.930;9.266;2023-03-20T09:22:05;101506.31;;;10.12;64.63
76201;BME280;64981;52.930;9.266;2023-03-20T09:24:30;101504.56;;;10.22;63.86
76201;BME280;64981;52.930;9.266;2023-03-20T09:26:57;101499.97;;;10.24;63.45
76201;BME280;64981;52.930;9.266;2023-03-20T09:29:25;101496.31;;;10.45;63.08
76201;BME280;64981;52.930;9.266;2023-03-20T09:31:52;101504.03;;;10.65;62.51
76201;BME280;64981;52.930;9.266;2023-03-20T09:34:19;101495.69;;;10.70;61.57
76201;BME280;64981;52.930;9.266;2023-03-20T09:36:44;101495.91;;;10.86;61.93
76201;BME280;64981;52.930;9.266;2023-03-20T09:39:10;101508.66;;;10.91;61.97
76201;BME280;64981;52.930;9.266;2023-03-20T09:41:36;101500.41;;;11.03;60.95
76201;BME280;64981;52.930;9.266;2023-03-20T09:44:14;101509.47;;;11.28;60.64
76201;BME280;64981;52.930;9.266;2023-03-20T09:46:59;101510.94;;;11.40;60.38
76201;BME280;64981;52.930;9.266;2023-03-20T09:50:05;101514.72;;;11.10;60.23
76201;BME280;64981;52.930;9.266;2023-03-20T09:52:53;101510.50;;;11.17;60.46
76201;BME280;64981;52.930;9.266;2023-03-20T09:55:30;101513.44;;;11.14;60.98
76201;BME280;64981;52.930;9.266;2023-03-20T09:58:04;101510.34;;;11.19;59.92
76201;BME280;64981;52.930;9.266;2023-03-20T10:00:33;101519.66;;;11.23;60.72
76201;BME280;64981;52.930;9.266;2023-03-20T10:03:04;101510.53;;;11.35;59.73
76201;BME280;64981;52.930;9.266;2023-03-20T10:05:41;101523.66;;;11.54;59.85
76201;BME280;64981;52.930;9.266;2023-03-20T10:08:13;101521.84;;;11.55;58.94
76201;BME280;64981;52.930;9.266;2023-03-20T10:11:05;101521.63;;;11.66;57.68
76201;BME280;64981;52.930;9.266;2023-03-20T10:17:05;101520.84;;;11.83;57.36
76201;BME280;64981;52.930;9.266;2023-03-20T10:19:42;101509.94;;;11.86;57.36
76201;BME280;64981;52.930;9.266;2023-03-20T10:22:22;101511.63;;;11.87;56.72
76201;BME280;64981;52.930;9.266;2023-03-20T10:24:58;101510.06;;;11.84;55.81
76201;BME280;64981;52.930;9.266;2023-03-20T10:27:33;101509.72;;;11.79;56.84
76201;BME280;64981;52.930;9.266;2023-03-20T10:33:19;101494.69;;;11.62;56.78
76201;BME280;64981;52.930;9.266;2023-03-20T10:36:20;101492.16;;;11.78;56.30
76201;BME280;64981;52.930;9.266;2023-03-20T10:39:06;101488.72;;;11.78;55.56
76201;BME280;64981;52.930;9.266;2023-03-20T10:41:37;101486.75;;;11.62;55.75
76201;BME280;64981;52.930;9.266;2023-03-20T10:44:23;101483.56;;;11.59;55.69
76201;BME280;64981;52.930;9.266;2023-03-20T10:46:54;101489.69;;;11.59;56.26
76201;BME280;64981;52.930;9.266;2023-03-20T10:49:36;101495.66;;;11.61;55.60
76201;BME280;64981;52.930;9.266;2023-03-20T10:52:10;101489.13;;;11.56;55.83
76201;BME280;64981;52.930;9.266;2023-03-20T10:54:43;101482.72;;;11.76;55.27
76201;BME280;64981;52.930;9.266;2023-03-20T10:57:19;101480.28;;;11.82;55.29
76201;BME280;64981;52.930;9.266;2023-03-20T10:59:49;101485.28;;;11.85;55.56
76201;BME280;64981;52.930;9.266;2023-03-20T11:02:18;101480.97;;;11.67;55.95
76201;BME280;64981;52.930;9.266;2023-03-20T11:04:44;101476.22;;;11.70;55.13
76201;BME280;64981;52.930;9.266;2023-03-20T11:07:23;101480.00;;;11.68;55.26
76201;BME280;64981;52.930;9.266;2023-03-20T11:10:07;101484.91;;;11.80;55.51
76201;BME280;64981;52.930;9.266;2023-03-20T11:12:44;101485.19;;;11.95;55.42
76201;BME280;64981;52.930;9.266;2023-03-20T11:15:31;101482.72;;;12.19;54.31
76201;BME280;64981;52.930;9.266;2023-03-20T11:18:12;101481.81;;;12.28;54.11
76201;BME280;64981;52.930;9.266;2023-03-20T11:20:49;101486.94;;;11.86;54.67
76201;BME280;64981;52.930;9.266;2023-03-20T11:23:24;101474.41;;;11.71;55.29
76201;BME280;64981;52.930;9.266;2023-03-20T11:26:02;101467.41;;;12.05;55.03
76201;BME280;64981;52.930;9.266;2023-03-20T11:28:38;101474.69;;;12.03;54.68
76201;BME280;64981;52.930;9.266;2023-03-20T11:31:15;101464.69;;;11.97;55.47
76201;BME280;64981;52.930;9.266;2023-03-20T11:33:45;101465.97;;;12.11;54.80
76201;BME280;64981;52.930;9.266;2023-03-20T11:39:03;101463.56;;;12.00;55.00
76201;BME280;64981;52.930;9.266;2023-03-20T11:41:30;101448.75;;;11.89;54.20
76201;BME280;64981;52.930;9.266;2023-03-20T11:43:56;101456.69;;;11.89;54.94
76201;BME280;64981;52.930;9.266;2023-03-20T11:46:24;101448.75;;;11.89;55.01
76201;BME280;64981;52.930;9.266;2023-03-20T11:49:02;101445.34;;;11.97;55.34
76201;BME280;64981;52.930;9.266;2023-03-20T11:51:29;101461.47;;;11.85;54.26
76201;BME280;64981;52.930;9.266;2023-03-20T11:54:05;101451.97;;;12.01;54.69
76201;BME280;64981;52.930;9.266;2023-03-20T11:56:51;101444.81;;;11.93;54.68
76201;BME280;64981;52.930;9.266;2023-03-20T11:59:17;101446.13;;;11.71;53.49
76201;BME280;64981;52.930;9.266;2023-03-20T12:01:52;101437.81;;;11.84;53.67
76201;BME280;64981;52.930;9.266;2023-03-20T12:04:32;101447.28;;;12.12;52.52
76201;BME280;64981;52.930;9.266;2023-03-20T12:07:19;101447.06;;;11.88;53.20
76201;BME280;64981;52.930;9.266;2023-03-20T12:09:53;101437.81;;;11.84;52.77
76201;BME280;64981;52.930;9.266;2023-03-20T12:13:00;101433.31;;;12.02;52.63
76201;BME280;64981;52.930;9.266;2023-03-20T12:15:34;101435.44;;;12.24;52.37
76201;BME280;64981;52.930;9.266;2023-03-20T12:18:24;101429.25;;;12.41;52.10
76201;BME280;64981;52.930;9.266;2023-03-20T12:26:38;101436.56;;;12.48;51.43
76201;BME280;64981;52.930;9.266;2023-03-20T12:29:39;101429.84;;;12.61;50.93
76201;BME280;64981;52.930;9.266;2023-03-20T12:35:30;101425.84;;;12.83;50.39
76201;BME280;64981;52.930;9.266;2023-03-20T12:37:57;101423.56;;;13.04;50.02
76201;BME280;64981;52.930;9.266;2023-03-20T12:40:41;101433.06;;;13.23;49.33
76201;BME280;64981;52.930;9.266;2023-03-20T12:43:14;101425.59;;;13.10;49.93
76201;BME280;64981;52.930;9.266;2023-03-20T12:45:55;101421.16;;;13.27;49.33
76201;BME280;64981;52.930;9.266;2023-03-20T12:48:49;101427.94;;;13.21;48.67
76201;BME280;64981;52.930;9.266;2023-03-20T12:51:41;101420.31;;;13.26;48.53
76201;BME280;64981;52.930;9.266;2023-03-20T12:54:56;101428.31;;;13.42;48.63
76201;BME280;64981;52.930;9.266;2023-03-20T13:00:27;101399.44;;;13.39;48.46
76201;BME280;64981;52.930;9.266;2023-03-20T13:03:17;101417.88;;;13.57;47.54
76201;BME280;64981;52.930;9.266;2023-03-20T13:05:58;101410.75;;;13.66;47.23
76201;BME280;64981;52.930;9.266;2023-03-20T13:11:54;101381.22;;;13.28;47.78
76201;BME280;64981;52.930;9.266;2023-03-20T13:20:30;101382.53;;;13.40;47.77
76201;BME280;64981;52.930;9.266;2023-03-20T13:23:16;101398.28;;;13.42;48.08
76201;BME280;64981;52.930;9.266;2023-03-20T13:26:10;101386.34;;;13.46;48.23
76201;BME280;64981;52.930;9.266;2023-03-20T13:29:01;101388.81;;;13.23;48.64
76201;BME280;64981;52.930;9.266;2023-03-20T13:31:43;101383.53;;;13.31;48.58
76201;BME280;64981;52.930;9.266;2023-03-20T13:34:34;101389.19;;;13.52;47.10
76201;BME280;64981;52.930;9.266;2023-03-20T13:37:16;101387.38;;;13.53;47.16
76201;BME280;64981;52.930;9.266;2023-03-20T13:40:03;101393.81;;;13.50;48.02
76201;BME280;64981;52.930;9.266;2023-03-20T13:42:37;101385.16;;;13.32;48.68
76201;BME280;64981;52.930;9.266;2023-03-20T13:45:29;101386.00;;;13.57;48.37
76201;BME280;64981;52.930;9.266;2023-03-20T13:48:04;101385.53;;;13.62;48.30
76201;BME280;64981;52.930;9.266;2023-03-20T13:50:55;101383.53;;;13.64;48.11
76201;BME280;64981;52.930;9.266;2023-03-20T13:53:36;101382.56;;;13.57;48.21
76201;BME280;64981;52.930;9.266;2023-03-20T13:56:19;101383.03;;;13.60;48.31
76201;BME280;64981;52.930;9.266;2023-03-20T13:59:00;101387.81;;;13.32;48.70
76201;BME280;64981;52.930;9.266;2023-03-20T14:04:21;101384.84;;;13.35;48.31
76201;BME280;64981;52.930;9.266;2023-03-20T14:06:50;101384.88;;;13.43;48.60
76201;BME280;64981;52.930;9.266;2023-03-20T14:09:32;101389.81;;;13.38;48.91
76201;BME280;64981;52.930;9.266;2023-03-20T14:14:47;101375.72;;;13.22;49.13
76201;BME280;64981;52.930;9.266;2023-03-20T14:17:21;101377.19;;;13.16;49.30
76201;BME280;64981;52.930;9.266;2023-03-20T14:19:50;101377.13;;;12.92;49.74